Time;durP1;ratioP1;P1;durP2;ratioP2;P2;SDS_P1;SDS_P2;PMS_P1;PMS_P2;Temp;Humidity;BMP_temperature;BMP_pressure;BME280_temperature;BME280_humidity;BME280_pressure;Samples;Min_cycle;Max_cycle;Signal;HPM_P1;HPM_P2
2022/03/09 00:00:58;;;;;;;12.77;9.10;;;1.40;77.80;;;;;;4973569;28;20182;-65
2022/03/09 00:03:23;;;;;;;11.63;8.93;;;1.40;78.40;;;;;;4973325;28;20173;-65
2022/03/09 00:05:49;;;;;;;13.40;9.90;;;1.30;79.40;;;;;;4972637;28;20208;-65
2022/03/09 00:08:14;;;;;;;11.00;9.37;;;1.30;79.80;;;;;;4973243;28;20260;-65
2022/03/09 00:10:40;;;;;;;12.77;10.03;;;1.20;80.60;;;;;;4973741;28;20187;-65
2022/03/09 00:13:06;;;;;;;16.80;11.47;;;1.10;80.10;;;;;;4973135;28;20381;-64
2022/03/09 00:15:31;;;;;;;15.83;10.90;;;1.10;80.70;;;;;;4972566;28;20208;-64
2022/03/09 00:17:57;;;;;;;12.70;9.27;;;1.10;81.80;;;;;;4973267;28;20177;-65
2022/03/09 00:20:22;;;;;;;11.83;10.07;;;1.20;82.40;;;;;;4973051;28;20639;-65
2022/03/09 00:22:48;;;;;;;11.90;9.60;;;1.20;82.20;;;;;;4973085;28;20658;-65
2022/03/09 00:25:13;;;;;;;13.80;9.83;;;1.20;82.70;;;;;;4972827;28;20211;-65
2022/03/09 00:27:39;;;;;;;14.43;10.20;;;1.10;82.40;;;;;;4973110;28;20264;-65
2022/03/09 00:30:05;;;;;;;13.83;10.27;;;1.10;83.10;;;;;;4973007;28;20650;-65
2022/03/09 00:32:31;;;;;;;10.83;8.87;;;1.00;84.30;;;;;;4973110;28;20184;-65
2022/03/09 00:34:57;;;;;;;14.60;10.67;;;1.00;84.10;;;;;;4972984;28;20555;-65
2022/03/09 00:37:22;;;;;;;13.50;9.13;;;0.90;85.30;;;;;;4972187;28;20192;-65
2022/03/09 00:39:47;;;;;;;14.27;10.70;;;0.90;86.10;;;;;;4973115;28;20191;-66
2022/03/09 00:42:13;;;;;;;14.60;10.47;;;0.90;87.20;;;;;;4972396;28;20184;-65
2022/03/09 00:44:39;;;;;;;12.47;10.03;;;0.90;87.50;;;;;;4973128;28;20665;-65
2022/03/09 00:47:04;;;;;;;13.50;9.80;;;0.90;87.40;;;;;;4972326;28;20235;-65
2022/03/09 00:49:30;;;;;;;13.27;9.30;;;0.90;87.80;;;;;;4972861;28;20184;-66
2022/03/09 00:51:55;;;;;;;14.63;9.97;;;0.90;88.80;;;;;;4972550;28;20203;-65
2022/03/09 00:54:21;;;;;;;12.00;10.57;;;0.90;90.10;;;;;;4972851;28;20255;-66
2022/03/09 00:56:47;;;;;;;12.03;8.20;;;0.90;90.20;;;;;;4972371;28;20192;-65
2022/03/09 00:59:12;;;;;;;10.73;8.80;;;0.80;90.70;;;;;;4972792;28;20180;-65
2022/03/09 01:01:38;;;;;;;15.20;9.83;;;0.80;90.90;;;;;;4971640;28;20183;-65
2022/03/09 01:04:03;;;;;;;13.20;9.47;;;0.80;91.10;;;;;;4972751;28;20741;-65
2022/03/09 01:06:29;;;;;;;11.03;8.60;;;0.80;91.20;;;;;;4971987;28;20207;-64
2022/03/09 01:08:57;;;;;;;13.53;9.33;;;0.80;92.30;;;;;;4972922;28;20180;-66
2022/03/09 01:11:22;;;;;;;18.70;9.30;;;0.80;92.10;;;;;;4972238;28;20195;-65
2022/03/09 01:13:48;;;;;;;11.43;8.43;;;0.70;92.20;;;;;;4972634;28;20452;-66
2022/03/09 01:16:14;;;;;;;13.03;8.80;;;0.70;92.40;;;;;;4972045;28;20240;-65
2022/03/09 01:18:39;;;;;;;11.70;9.03;;;0.70;92.40;;;;;;4972598;28;20239;-65
2022/03/09 01:21:05;;;;;;;12.43;8.30;;;0.70;93.20;;;;;;4972543;28;20177;-65
2022/03/09 01:23:30;;;;;;;10.67;7.67;;;0.60;92.90;;;;;;4972759;28;20191;-66
2022/03/09 01:25:56;;;;;;;14.57;10.40;;;0.60;93.40;;;;;;4971893;28;20211;-65
2022/03/09 01:28:22;;;;;;;14.50;9.70;;;0.60;93.90;;;;;;4972899;28;20180;-64
2022/03/09 01:30:47;;;;;;;9.47;8.37;;;0.60;93.80;;;;;;4972660;28;20655;-65
2022/03/09 01:33:13;;;;;;;11.43;7.23;;;0.50;93.40;;;;;;4972507;28;20208;-65
2022/03/09 01:35:38;;;;;;;13.27;8.50;;;0.50;93.30;;;;;;4971265;28;20258;-65
2022/03/09 01:38:04;;;;;;;11.30;7.27;;;0.50;94.00;;;;;;4972405;28;20177;-65
2022/03/09 01:40:29;;;;;;;12.70;8.07;;;0.50;94.10;;;;;;4972503;28;20180;-65
2022/03/09 01:42:55;;;;;;;10.63;7.83;;;0.40;94.60;;;;;;4974184;28;20180;-66
2022/03/09 01:45:21;;;;;;;16.93;9.13;;;0.40;94.70;;;;;;4975070;28;20196;-64
2022/03/09 01:47:48;;;;;;;14.13;8.10;;;0.50;94.80;;;;;;4976455;28;20172;-65
2022/03/09 01:50:13;;;;;;;12.00;8.77;;;0.50;94.80;;;;;;4975763;28;20426;-65
2022/03/09 01:52:42;;;;;;;12.07;8.00;;;0.40;95.00;;;;;;4976073;28;20798;-64
2022/03/09 01:55:09;;;;;;;10.17;7.10;;;0.50;95.40;;;;;;4974734;28;20268;-65
2022/03/09 01:57:35;;;;;;;9.67;6.77;;;0.50;95.30;;;;;;4975876;28;20431;-65
2022/03/09 02:00:02;;;;;;;12.70;7.20;;;0.50;95.20;;;;;;4975681;28;20966;-65
2022/03/09 02:02:28;;;;;;;10.40;7.77;;;0.40;96.10;;;;;;4975584;28;20326;-65
2022/03/09 02:04:53;;;;;;;11.80;7.43;;;0.40;96.10;;;;;;4975311;28;20841;-66
2022/03/09 02:09:41;;;;;;;7.73;6.77;;;0.30;96.00;;;;;;4974836;28;20563;-64
2022/03/09 02:10:06;;;;;;;8.30;6.60;;;0.30;95.80;;;;;;4975622;28;20282;-65
2022/03/09 02:12:32;;;;;;;10.47;7.27;;;0.30;96.00;;;;;;4975508;28;20442;-65
2022/03/09 02:14:57;;;;;;;10.67;6.97;;;0.30;97.40;;;;;;4975140;28;20483;-64
2022/03/09 02:17:28;;;;;;;12.00;6.90;;;0.30;97.60;;;;;;4974812;28;20587;-65
2022/03/09 02:19:55;;;;;;;8.80;6.50;;;0.20;97.80;;;;;;4975566;28;20177;-66
2022/03/09 02:22:33;;;;;;;9.70;6.30;;;0.10;97.60;;;;;;4975594;28;20449;-65
2022/03/09 02:25:00;;;;;;;11.73;6.67;;;0.00;97.60;;;;;;4974884;28;20823;-66
2022/03/09 02:27:26;;;;;;;7.90;7.07;;;0.10;97.50;;;;;;4975012;28;20968;-66
2022/03/09 02:29:53;;;;;;;9.23;7.57;;;0.10;97.40;;;;;;4975426;28;20463;-65
2022/03/09 02:32:19;;;;;;;8.53;6.80;;;0.10;98.10;;;;;;4975190;28;20557;-65
2022/03/09 02:34:45;;;;;;;12.03;6.60;;;0.10;98.50;;;;;;4974015;28;20839;-65
2022/03/09 02:37:11;;;;;;;8.17;6.20;;;0.10;98.40;;;;;;4974125;28;20447;-65
2022/03/09 02:39:37;;;;;;;8.90;7.23;;;0.00;98.20;;;;;;4975216;28;20432;-65
2022/03/09 02:42:03;;;;;;;9.00;6.40;;;-0.10;98.10;;;;;;4974825;28;20454;-65
2022/03/09 02:44:30;;;;;;;8.27;6.60;;;-0.10;98.70;;;;;;4975260;28;20436;-65
2022/03/09 02:46:56;;;;;;;12.33;6.70;;;-0.10;98.80;;;;;;4973828;28;20462;-66
2022/03/09 02:49:21;;;;;;;9.03;7.23;;;-0.10;98.90;;;;;;4974961;28;20436;-65
2022/03/09 02:51:47;;;;;;;9.20;6.63;;;-0.20;99.30;;;;;;4974886;28;20443;-65
2022/03/09 02:54:12;;;;;;;12.13;7.50;;;-0.20;99.70;;;;;;4974537;28;20204;-66
2022/03/09 02:56:38;;;;;;;9.60;7.50;;;-0.20;99.90;;;;;;4974309;28;20192;-65
2022/03/09 02:59:04;;;;;;;8.97;6.43;;;-0.20;99.90;;;;;;4974681;28;20180;-65
2022/03/09 03:01:29;;;;;;;8.80;6.50;;;-0.20;99.90;;;;;;4974998;28;20246;-65
2022/03/09 03:03:55;;;;;;;9.47;7.60;;;-0.20;99.90;;;;;;4974352;28;20177;-67
2022/03/09 03:06:20;;;;;;;11.50;7.80;;;-0.20;99.90;;;;;;4973614;28;20424;-65
2022/03/09 03:08:46;;;;;;;10.30;7.43;;;-0.30;99.90;;;;;;4974422;28;20808;-65
2022/03/09 03:11:12;;;;;;;10.57;7.37;;;-0.30;99.90;;;;;;4966427;28;20212;-66
2022/03/09 03:13:39;;;;;;;9.40;7.20;;;-0.30;99.90;;;;;;4974199;28;20192;-65
2022/03/09 03:16:06;;;;;;;9.10;6.80;;;-0.30;99.90;;;;;;4973945;28;20809;-66
2022/03/09 03:18:32;;;;;;;9.33;7.37;;;-0.30;99.90;;;;;;4974498;28;20498;-65
2022/03/09 03:20:58;;;;;;;7.60;6.63;;;-0.30;99.90;;;;;;4973245;28;20436;-65
2022/03/09 03:23:28;;;;;;;14.57;8.43;;;-0.30;99.90;;;;;;4974298;28;20996;-65
2022/03/09 03:25:55;;;;;;;7.80;6.67;;;-0.30;99.90;;;;;;4973601;28;20207;-65
2022/03/09 03:28:21;;;;;;;19.50;13.50;;;-0.30;99.90;;;;;;4974193;28;20474;-65
2022/03/09 03:30:47;;;;;;;16.53;9.07;;;-0.40;99.90;;;;;;4974402;28;20439;-65
2022/03/09 03:33:14;;;;;;;9.90;7.90;;;-0.40;99.90;;;;;;4973604;28;20814;-66
2022/03/09 03:35:41;;;;;;;8.63;7.77;;;-0.30;99.90;;;;;;4973421;28;20466;-65
2022/03/09 03:38:06;;;;;;;10.20;7.47;;;-0.30;99.90;;;;;;4973982;28;20518;-66
2022/03/09 03:40:32;;;;;;;8.50;7.60;;;-0.40;99.90;;;;;;4973994;28;20563;-66
2022/03/09 03:42:58;;;;;;;7.50;6.27;;;-0.40;99.90;;;;;;4973760;28;20181;-66
2022/03/09 03:45:23;;;;;;;10.17;7.20;;;-0.40;99.90;;;;;;4973108;28;20463;-66
2022/03/09 03:47:49;;;;;;;7.77;6.60;;;-0.40;99.90;;;;;;4973838;28;20589;-66
2022/03/09 03:50:14;;;;;;;7.63;6.83;;;-0.40;99.90;;;;;;4974257;28;20267;-66
2022/03/09 03:52:40;;;;;;;10.33;6.50;;;-0.40;99.90;;;;;;4973626;28;20176;-65
2022/03/09 03:55:06;;;;;;;9.50;7.63;;;-0.50;99.90;;;;;;4973206;28;20706;-65
2022/03/09 03:57:32;;;;;;;10.60;6.50;;;-0.50;99.90;;;;;;4973910;28;20185;-66
2022/03/09 03:59:57;;;;;;;9.60;7.70;;;-0.50;99.90;;;;;;4973901;28;20438;-66
2022/03/09 04:02:23;;;;;;;9.93;6.80;;;-0.40;99.90;;;;;;4973642;28;20255;-65
2022/03/09 04:04:50;;;;;;;12.27;7.47;;;-0.50;99.90;;;;;;4973218;28;20176;-67
2022/03/09 04:07:16;;;;;;;8.00;6.70;;;-0.50;99.90;;;;;;4973005;28;20534;-66
2022/03/09 04:09:41;;;;;;;8.60;7.10;;;-0.60;99.90;;;;;;4973801;28;20439;-65
2022/03/09 04:12:08;;;;;;;9.93;6.30;;;-0.60;99.90;;;;;;4973379;28;20650;-67
2022/03/09 04:14:33;;;;;;;8.40;6.77;;;-0.70;99.90;;;;;;4973698;28;20261;-65
2022/03/09 04:16:59;;;;;;;7.80;5.53;;;-0.70;99.90;;;;;;4972120;28;20962;-66
2022/03/09 04:19:24;;;;;;;12.63;8.00;;;-0.70;99.90;;;;;;4972499;28;20315;-66
2022/03/09 04:21:50;;;;;;;9.67;6.90;;;-0.70;99.90;;;;;;4973451;28;20231;-66
2022/03/09 04:24:15;;;;;;;9.40;7.23;;;-0.60;99.90;;;;;;4973576;28;20176;-66
2022/03/09 04:26:41;;;;;;;9.40;6.83;;;-0.60;99.90;;;;;;4972537;28;20207;-67
2022/03/09 04:29:07;;;;;;;7.47;6.70;;;-0.60;99.90;;;;;;4973094;28;20184;-65
2022/03/09 04:31:32;;;;;;;10.20;7.43;;;-0.60;99.90;;;;;;4973345;28;20184;-66
2022/03/09 04:33:58;;;;;;;8.27;6.63;;;-0.70;99.90;;;;;;4973232;28;20603;-66
2022/03/09 04:36:23;;;;;;;10.27;6.67;;;-0.70;99.90;;;;;;4972919;28;20216;-66
2022/03/09 04:38:49;;;;;;;9.87;6.77;;;-0.70;99.90;;;;;;4972866;28;20176;-66
2022/03/09 04:41:14;;;;;;;10.43;7.30;;;-0.80;99.90;;;;;;4972885;28;20215;-65
2022/03/09 04:43:40;;;;;;;10.33;6.77;;;-0.80;99.90;;;;;;4973186;28;20263;-66
2022/03/09 04:46:06;;;;;;;9.40;7.50;;;-0.90;99.90;;;;;;4972389;28;20682;-67
2022/03/09 04:48:31;;;;;;;10.10;6.60;;;-1.00;99.90;;;;;;4973096;28;20182;-65
2022/03/09 04:50:57;;;;;;;9.73;7.47;;;-1.00;99.90;;;;;;4972248;28;20207;-67
2022/03/09 04:53:22;;;;;;;11.20;6.80;;;-1.00;99.90;;;;;;4973242;28;20204;-66
2022/03/09 04:55:48;;;;;;;8.97;6.60;;;-0.90;99.90;;;;;;4972060;28;20283;-66
2022/03/09 04:58:13;;;;;;;10.53;7.57;;;-0.80;99.90;;;;;;4973295;28;20180;-66
2022/03/09 05:00:39;;;;;;;12.97;7.37;;;-0.70;99.90;;;;;;4972990;28;20287;-67
2022/03/09 05:03:04;;;;;;;11.77;7.17;;;-0.80;99.90;;;;;;4972922;28;20234;-66
2022/03/09 05:05:30;;;;;;;12.93;7.40;;;-0.70;99.90;;;;;;4972064;28;20196;-66
2022/03/09 05:07:55;;;;;;;10.73;8.60;;;-0.70;99.90;;;;;;4972729;28;20669;-65
2022/03/09 05:10:21;;;;;;;9.50;8.23;;;-0.70;99.90;;;;;;4972814;28;20180;-65
2022/03/09 05:12:46;;;;;;;11.90;8.17;;;-0.70;99.90;;;;;;4972009;28;20658;-66
2022/03/09 05:15:12;;;;;;;10.67;7.83;;;-0.70;99.90;;;;;;4971404;28;20211;-66
2022/03/09 05:17:42;;;;;;;12.60;10.50;;;-0.80;99.90;;;;;;4974911;28;20650;-65
2022/03/09 05:20:09;;;;;;;17.70;9.77;;;-0.90;99.90;;;;;;4972511;28;20168;-65
2022/03/09 05:22:34;;;;;;;11.50;7.87;;;-1.00;99.90;;;;;;4976670;28;20439;-66
2022/03/09 05:25:00;;;;;;;11.50;8.00;;;-1.00;99.90;;;;;;4974954;28;20999;-66
2022/03/09 05:27:27;;;;;;;11.60;6.80;;;-1.00;99.90;;;;;;4976453;28;20187;-65
2022/03/09 05:29:53;;;;;;;9.00;6.40;;;-1.00;99.90;;;;;;4976550;28;20180;-65
2022/03/09 05:32:18;;;;;;;10.87;8.73;;;-1.10;99.90;;;;;;4976568;28;20446;-66
2022/03/09 05:34:46;;;;;;;11.87;7.40;;;-1.10;99.90;;;;;;4976293;28;20208;-66
2022/03/09 05:37:12;;;;;;;10.97;6.80;;;-1.20;99.90;;;;;;4975353;28;20224;-65
2022/03/09 05:39:37;;;;;;;11.27;7.77;;;-1.20;99.90;;;;;;4976384;28;20958;-66
2022/03/09 05:42:04;;;;;;;11.27;8.60;;;-1.10;99.90;;;;;;4976151;28;20474;-66
2022/03/09 05:44:29;;;;;;;12.30;8.40;;;-1.10;99.90;;;;;;4976412;28;20267;-66
2022/03/09 05:46:56;;;;;;;17.53;8.20;;;-1.10;99.90;;;;;;4974442;28;20529;-65
2022/03/09 05:49:22;;;;;;;15.33;7.50;;;-1.10;99.90;;;;;;4975838;28;20180;-66
2022/03/09 05:51:48;;;;;;;12.47;8.70;;;-1.10;99.90;;;;;;4975548;28;20431;-65
2022/03/09 05:54:13;;;;;;;14.50;8.17;;;-1.10;99.90;;;;;;4975583;28;20614;-65
2022/03/09 05:56:39;;;;;;;13.57;7.37;;;-1.10;99.90;;;;;;4975104;28;20926;-66
2022/03/09 05:59:05;;;;;;;14.27;7.63;;;-1.10;99.90;;;;;;4975674;28;20180;-65
2022/03/09 06:01:31;;;;;;;10.60;7.33;;;-1.10;99.90;;;;;;4970962;28;20447;-66
2022/03/09 06:03:56;;;;;;;11.03;8.03;;;-1.20;99.90;;;;;;4968697;28;20188;-66
2022/03/09 06:06:22;;;;;;;11.87;8.13;;;-1.20;99.90;;;;;;4978201;28;20270;-65
2022/03/09 06:08:47;;;;;;;12.63;7.77;;;-1.20;99.90;;;;;;4979164;28;20180;-66
2022/03/09 06:11:13;;;;;;;10.80;9.50;;;-1.20;99.90;;;;;;4975591;28;20184;-66
2022/03/09 06:13:38;;;;;;;12.97;8.43;;;-1.10;99.90;;;;;;4977892;28;20208;-65
2022/03/09 06:16:04;;;;;;;11.73;8.73;;;-1.10;99.90;;;;;;4973825;28;20209;-66
2022/03/09 06:18:30;;;;;;;15.53;10.87;;;-1.10;99.90;;;;;;4974180;28;20598;-67
2022/03/09 06:20:55;;;;;;;14.43;9.03;;;-1.10;99.90;;;;;;4975510;28;20546;-63
2022/03/09 06:23:21;;;;;;;14.27;9.43;;;-1.00;99.90;;;;;;4975695;28;20271;-64
2022/03/09 06:25:46;;;;;;;14.33;8.60;;;-0.80;99.90;;;;;;4974766;28;20700;-64
2022/03/09 06:28:12;;;;;;;15.23;8.97;;;-0.60;99.90;;;;;;4979274;28;20180;-64
2022/03/09 06:30:37;;;;;;;11.37;9.13;;;-0.30;99.90;;;;;;4979617;28;20268;-65
2022/03/09 06:33:03;;;;;;;13.00;8.00;;;-0.10;99.90;;;;;;4981339;28;20215;-65
2022/03/09 06:35:28;;;;;;;14.03;9.10;;;0.10;99.90;;;;;;4974202;28;20250;-64
2022/03/09 06:37:54;;;;;;;13.30;10.40;;;0.30;99.90;;;;;;4976186;28;20195;-65
2022/03/09 06:40:21;;;;;;;12.87;9.10;;;0.50;99.90;;;;;;4975182;28;20555;-65
2022/03/09 06:42:47;;;;;;;12.93;8.13;;;0.70;99.90;;;;;;4975309;28;20208;-64
2022/03/09 06:45:12;;;;;;;15.70;8.70;;;0.80;99.90;;;;;;4973456;28;20525;-64
2022/03/09 06:47:38;;;;;;;10.13;8.10;;;1.00;99.90;;;;;;4974421;28;20454;-65
2022/03/09 06:50:08;;;;;;;11.90;9.00;;;1.20;99.90;;;;;;4974002;28;20192;-66
2022/03/09 06:52:34;;;;;;;15.53;8.50;;;1.50;99.90;;;;;;4974894;28;20479;-65
2022/03/09 06:55:02;;;;;;;13.40;9.07;;;1.70;99.40;;;;;;4949433;28;20590;-64
2022/03/09 06:57:29;;;;;;;15.97;9.50;;;1.80;98.50;;;;;;4956818;28;20187;-65
2022/03/09 07:20:32;;;;;;;556.20;126.27;;;2.10;95.80;;;;;;5071723;28;20601;-69
2022/03/09 07:22:58;;;;;;;40.30;14.20;;;3.10;95.00;;;;;;5064685;28;20435;-68
2022/03/09 07:25:23;;;;;;;541.37;91.17;;;3.20;93.30;;;;;;5064263;28;20674;-67
2022/03/09 07:27:49;;;;;;;252.97;44.97;;;3.50;94.30;;;;;;5064787;28;20499;-68
2022/03/09 07:30:15;;;;;;;248.10;47.27;;;4.00;93.40;;;;;;5064307;28;20212;-67
2022/03/09 07:32:40;;;;;;;69.60;19.43;;;4.10;92.20;;;;;;5064721;28;20187;-67
2022/03/09 07:35:07;;;;;;;24.33;12.27;;;4.30;90.90;;;;;;5064234;28;20600;-67
2022/03/09 07:37:32;;;;;;;52.90;15.10;;;4.00;90.60;;;;;;5064607;28;20558;-67
2022/03/09 07:39:58;;;;;;;26.13;13.33;;;6.60;95.20;;;;;;5063878;28;20459;-66
2022/03/09 07:42:23;;;;;;;40.17;14.43;;;10.50;72.70;;;;;;5063918;28;20260;-66
2022/03/09 07:44:49;;;;;;;17.20;11.60;;;12.00;60.80;;;;;;5063162;28;20185;-67
2022/03/09 07:47:14;;;;;;;18.87;12.30;;;11.30;55.90;;;;;;5064588;28;20184;-67
2022/03/09 07:49:40;;;;;;;23.93;13.83;;;9.50;57.00;;;;;;5063221;28;20560;-66
2022/03/09 07:52:06;;;;;;;24.07;16.97;;;8.60;59.70;;;;;;5064438;28;20205;-66
2022/03/09 07:54:32;;;;;;;18.83;14.57;;;7.50;60.80;;;;;;5064309;28;20215;-66
2022/03/09 07:56:58;;;;;;;17.67;12.50;;;6.80;64.50;;;;;;5064543;28;20961;-66
2022/03/09 07:59:26;;;;;;;25.80;14.03;;;6.30;65.60;;;;;;5063713;28;20526;-66
2022/03/09 08:01:53;;;;;;;14.23;10.60;;;6.30;67.20;;;;;;5064702;28;20260;-66
2022/03/09 08:04:20;;;;;;;18.33;10.97;;;6.40;67.20;;;;;;5063680;28;20442;-66
2022/03/09 08:06:48;;;;;;;40.30;14.77;;;6.60;66.90;;;;;;5064129;28;20521;-66
2022/03/09 08:09:13;;;;;;;19.70;11.77;;;7.20;69.20;;;;;;5063488;28;20866;-67
2022/03/09 08:11:39;;;;;;;17.97;11.63;;;7.50;65.70;;;;;;5050766;28;20455;-66
2022/03/09 08:14:04;;;;;;;22.80;11.00;;;6.90;65.90;;;;;;5049314;28;20191;-66
2022/03/09 08:16:30;;;;;;;16.03;10.83;;;6.60;67.00;;;;;;5047870;28;20216;-67
2022/03/09 08:18:55;;;;;;;14.70;10.97;;;6.60;68.10;;;;;;5063283;28;20208;-66
2022/03/09 08:21:21;;;;;;;15.03;11.83;;;6.60;66.90;;;;;;5051181;28;20209;-66
2022/03/09 08:23:46;;;;;;;14.30;11.10;;;7.00;67.10;;;;;;5050557;28;20228;-66
2022/03/09 08:26:12;;;;;;;20.73;13.00;;;7.10;65.70;;;;;;5050344;28;20193;-66
2022/03/09 08:28:38;;;;;;;16.00;10.50;;;7.10;65.30;;;;;;5049147;28;20268;-66
2022/03/09 08:31:03;;;;;;;14.47;9.67;;;7.00;65.50;;;;;;5049760;28;20209;-65
2022/03/09 08:33:29;;;;;;;13.93;10.30;;;7.10;65.30;;;;;;5050148;28;20603;-66
2022/03/09 08:35:55;;;;;;;25.43;11.13;;;7.20;64.70;;;;;;5050476;28;20269;-66
2022/03/09 08:38:20;;;;;;;17.17;10.87;;;7.40;64.10;;;;;;5049639;28;20685;-66
2022/03/09 08:40:46;;;;;;;18.93;11.17;;;7.50;63.10;;;;;;5049184;28;20538;-66
2022/03/09 08:43:12;;;;;;;19.30;11.63;;;7.90;63.40;;;;;;5046307;28;20181;-67
2022/03/09 08:45:38;;;;;;;13.70;11.57;;;8.60;62.30;;;;;;5045402;28;20189;-66
2022/03/09 08:48:05;;;;;;;16.83;12.17;;;9.30;60.40;;;;;;5050355;28;20565;-66
2022/03/09 08:50:30;;;;;;;17.70;11.43;;;9.50;59.10;;;;;;5040993;28;20479;-66
2022/03/09 08:52:56;;;;;;;87.47;18.07;;;9.30;59.10;;;;;;5049385;28;20482;-66
2022/03/09 08:55:22;;;;;;;18.03;12.73;;;10.20;61.10;;;;;;5049757;28;20720;-67
2022/03/09 08:57:48;;;;;;;16.20;12.10;;;10.60;57.70;;;;;;5048313;28;20527;-67
2022/03/09 09:00:14;;;;;;;17.43;12.93;;;11.50;55.90;;;;;;5049700;28;20223;-65
2022/03/09 09:02:39;;;;;;;18.87;13.60;;;10.90;55.30;;;;;;5048696;28;20256;-67
2022/03/09 09:05:06;;;;;;;15.87;10.90;;;11.00;54.70;;;;;;5046408;28;20439;-67
2022/03/09 09:07:31;;;;;;;12.33;11.13;;;11.10;54.60;;;;;;5046902;28;20528;-67
2022/03/09 09:09:57;;;;;;;16.70;14.97;;;12.10;53.10;;;;;;5043572;28;20455;-64
2022/03/09 10:20:30;;;;;;;35.67;18.00;;;19.80;33.70;;;;;;5063900;28;20590;-68
2022/03/09 10:23:00;;;;;;;17.50;15.70;;;21.20;32.90;;;;;;5044192;28;20951;-65
2022/03/09 10:25:25;;;;;;;16.23;14.60;;;22.50;30.50;;;;;;5041901;28;20432;-65
2022/03/09 10:27:53;;;;;;;26.27;23.57;;;23.70;29.10;;;;;;5042643;28;20439;-65
2022/03/09 10:30:21;;;;;;;19.13;17.07;;;23.60;28.90;;;;;;5039811;28;20217;-65
2022/03/09 10:32:50;;;;;;;18.70;15.13;;;23.40;28.60;;;;;;5046961;28;20950;-67
2022/03/09 10:35:20;;;;;;;77.87;69.47;;;23.10;28.30;;;;;;5044544;28;20955;-66
2022/03/09 10:37:47;;;;;;;17.00;15.40;;;23.50;28.10;;;;;;5045844;28;20948;-65
2022/03/09 10:40:16;;;;;;;16.53;14.93;;;23.10;27.60;;;;;;5046372;28;20467;-64
2022/03/09 10:42:41;;;;;;;18.40;16.73;;;24.60;26.90;;;;;;5046133;28;20519;-65
2022/03/09 10:45:08;;;;;;;18.67;16.77;;;23.70;26.20;;;;;;5038600;28;20534;-65
2022/03/09 10:47:42;;;;;;;18.00;16.10;;;24.40;27.30;;;;;;5039528;28;20186;-65
2022/03/09 10:50:17;;;;;;;16.70;15.10;;;25.20;26.40;;;;;;5041525;28;20807;-69
2022/03/09 10:53:14;;;;;;;17.53;15.93;;;24.70;25.50;;;;;;5717132;22;20490;-65
2022/03/09 10:55:39;;;;;;;16.60;14.50;;;25.00;25.70;;;;;;5025965;28;20468;-67
2022/03/09 10:58:14;;;;;;;21.60;16.70;;;25.60;25.50;;;;;;5026048;28;21047;-65
2022/03/09 11:00:40;;;;;;;17.70;16.07;;;24.60;26.20;;;;;;5025868;28;20196;-66
2022/03/09 11:03:11;;;;;;;16.97;15.47;;;24.60;26.10;;;;;;5022443;28;20452;-66
2022/03/09 11:05:52;;;;;;;17.80;16.10;;;24.90;25.50;;;;;;5023681;28;20178;-66
2022/03/09 11:08:32;;;;;;;17.93;16.37;;;26.10;24.90;;;;;;5025971;28;20433;-66
2022/03/09 11:10:58;;;;;;;16.57;15.23;;;26.20;24.60;;;;;;5026131;28;21017;-65
2022/03/09 11:13:25;;;;;;;17.50;15.83;;;27.10;24.30;;;;;;5024742;28;20823;-65
2022/03/09 11:15:51;;;;;;;17.47;15.97;;;26.90;23.40;;;;;;5024169;28;20494;-66
2022/03/09 11:18:21;;;;;;;19.20;14.60;;;26.60;23.90;;;;;;5025261;28;20459;-66
2022/03/09 11:20:50;;;;;;;20.73;16.83;;;27.20;23.90;;;;;;5026686;28;20934;-70
2022/03/09 11:23:17;;;;;;;16.73;15.03;;;25.40;24.30;;;;;;5025078;28;20878;-68
2022/03/09 11:25:54;;;;;;;18.00;16.50;;;24.90;24.80;;;;;;5015935;28;20446;-69
2022/03/09 11:28:31;;;;;;;18.10;16.37;;;25.80;24.50;;;;;;5018928;28;20453;-67
2022/03/09 11:31:01;;;;;;;17.20;15.70;;;26.20;24.10;;;;;;5013928;28;20509;-70
2022/03/09 11:33:40;;;;;;;18.37;16.40;;;26.00;24.20;;;;;;5009573;28;20446;-69
2022/03/09 11:36:24;;;;;;;18.10;16.37;;;26.00;24.20;;;;;;5008532;28;20441;-67
2022/03/09 11:39:13;;;;;;;21.20;19.13;;;26.90;24.20;;;;;;5009394;28;20803;-67
2022/03/09 11:41:40;;;;;;;17.53;16.03;;;27.90;23.60;;;;;;4995470;28;20446;-68
2022/03/09 11:44:21;;;;;;;32.27;20.90;;;28.30;23.50;;;;;;5007156;28;20449;-65
2022/03/09 11:47:13;;;;;;;18.30;16.60;;;29.50;24.40;;;;;;5011238;28;20946;-72
2022/03/09 11:49:41;;;;;;;20.60;18.70;;;29.80;24.30;;;;;;5007773;28;20476;-66
2022/03/09 11:52:24;;;;;;;19.93;18.13;;;30.60;24.00;;;;;;5006202;28;20437;-66
2022/03/09 11:54:55;;;;;;;21.03;18.83;;;30.70;23.30;;;;;;5005922;28;20461;-66
2022/03/09 11:57:23;;;;;;;20.40;17.97;;;31.20;23.60;;;;;;5005657;28;20441;-66
2022/03/09 12:00:08;;;;;;;21.13;18.93;;;31.20;22.80;;;;;;5008195;28;20942;-66
2022/03/09 12:02:38;;;;;;;20.93;18.93;;;30.10;23.10;;;;;;5011437;28;20453;-65
2022/03/09 12:05:04;;;;;;;20.73;18.60;;;28.80;22.40;;;;;;5007350;28;20532;-68
2022/03/09 12:07:33;;;;;;;18.57;16.87;;;27.60;22.60;;;;;;5012428;28;20437;-65
2022/03/09 12:10:05;;;;;;;21.63;19.53;;;26.80;24.00;;;;;;5011501;28;20457;-69
2022/03/09 12:12:33;;;;;;;21.00;19.00;;;28.70;23.30;;;;;;5008778;28;20504;-69
2022/03/09 12:15:06;;;;;;;20.80;19.10;;;27.20;22.70;;;;;;5007696;28;20926;-69
2022/03/09 12:17:39;;;;;;;20.17;18.17;;;27.60;23.20;;;;;;5011078;28;20425;-69
2022/03/09 12:20:23;;;;;;;20.20;18.33;;;28.70;22.60;;;;;;5011685;28;20500;-70
2022/03/09 12:22:55;;;;;;;18.80;17.00;;;26.60;22.80;;;;;;5010069;28;20489;-69
2022/03/09 12:25:46;;;;;;;20.03;18.10;;;26.20;23.30;;;;;;5007851;28;20804;-71
2022/03/09 12:28:23;;;;;;;19.20;17.53;;;26.30;23.30;;;;;;5011508;28;20468;-69
2022/03/09 12:30:51;;;;;;;19.43;17.73;;;27.70;22.80;;;;;;5010920;28;20421;-69
2022/03/09 12:33:37;;;;;;;20.77;18.97;;;29.60;22.00;;;;;;5010369;28;20816;-69
2022/03/09 12:36:11;;;;;;;21.00;19.07;;;30.30;21.20;;;;;;5009549;28;20441;-68
2022/03/09 12:38:57;;;;;;;19.13;17.43;;;30.70;21.00;;;;;;5010989;28;20961;-69
2022/03/09 12:41:24;;;;;;;21.37;19.40;;;31.00;20.70;;;;;;5009106;28;20514;-69
2022/03/09 12:43:51;;;;;;;19.13;17.60;;;32.10;20.70;;;;;;5007801;28;20461;-69
2022/03/09 12:46:18;;;;;;;17.97;16.50;;;32.50;20.00;;;;;;5011444;28;20517;-70
2022/03/09 12:48:44;;;;;;;19.23;17.63;;;32.90;19.80;;;;;;5010856;28;20476;-69
2022/03/09 12:51:10;;;;;;;17.80;16.40;;;34.10;19.20;;;;;;5011540;28;20465;-69
2022/03/09 12:53:36;;;;;;;17.60;16.10;;;32.70;18.80;;;;;;5008587;28;20457;-69
2022/03/09 12:56:19;;;;;;;18.90;17.00;;;30.40;18.90;;;;;;5009600;28;20467;-69
2022/03/09 12:58:45;;;;;;;19.47;17.30;;;29.30;19.80;;;;;;5011601;28;20440;-69
2022/03/09 13:01:14;;;;;;;18.33;16.73;;;28.60;19.80;;;;;;5011558;28;20568;-69
2022/03/09 13:03:41;;;;;;;16.90;15.40;;;28.50;20.30;;;;;;5007480;28;20506;-69
2022/03/09 13:06:25;;;;;;;17.60;16.00;;;30.20;20.10;;;;;;5009973;28;21103;-69
2022/03/09 13:08:51;;;;;;;16.93;15.33;;;32.60;19.40;;;;;;5010348;28;20449;-70
2022/03/09 13:11:31;;;;;;;15.70;14.50;;;33.90;18.60;;;;;;5010630;28;20763;-69
2022/03/09 13:13:57;;;;;;;15.60;14.40;;;35.10;17.80;;;;;;5001339;28;20214;-69
2022/03/09 13:16:25;;;;;;;15.40;14.20;;;34.20;16.80;;;;;;5011142;28;20434;-69
2022/03/09 13:19:00;;;;;;;17.17;15.37;;;32.30;18.00;;;;;;5009883;28;20430;-69
2022/03/09 13:21:27;;;;;;;15.93;14.73;;;33.90;18.00;;;;;;5009034;28;20506;-69
2022/03/09 13:24:00;;;;;;;19.00;17.30;;;35.00;17.60;;;;;;5006014;28;21013;-69
2022/03/09 13:26:36;;;;;;;17.50;15.90;;;35.50;17.40;;;;;;5010009;28;20486;-69
2022/03/09 13:29:03;;;;;;;17.50;16.00;;;35.00;17.30;;;;;;5009910;28;20457;-69
2022/03/09 13:31:42;;;;;;;16.17;14.77;;;34.80;17.30;;;;;;5010661;28;20926;-69
2022/03/09 13:34:14;;;;;;;18.13;16.73;;;34.70;17.20;;;;;;5004943;28;20629;-69
2022/03/09 13:36:40;;;;;;;14.85;13.55;;;34.50;17.70;;;;;;5010014;28;20573;-69
2022/03/09 13:39:06;;;;;;;18.67;17.07;;;35.00;17.50;;;;;;5010121;28;20194;-69
2022/03/09 13:41:41;;;;;;;17.70;16.17;;;35.40;17.20;;;;;;5009639;28;20433;-69
2022/03/09 13:44:27;;;;;;;17.27;15.77;;;36.20;17.10;;;;;;5005865;28;20731;-67
2022/03/09 13:47:01;;;;;;;14.87;13.60;;;36.60;16.70;;;;;;5002053;28;20870;-70
2022/03/09 13:49:27;;;;;;;15.80;14.50;;;37.20;16.40;;;;;;5006002;28;20496;-69
2022/03/09 13:51:52;;;;;;;17.10;15.80;;;37.00;16.00;;;;;;5007438;28;20970;-70
2022/03/09 13:54:20;;;;;;;16.03;14.73;;;34.10;15.60;;;;;;5002481;28;20206;-70
2022/03/09 13:56:59;;;;;;;16.87;15.47;;;35.30;16.80;;;;;;5006578;28;20191;-70
2022/03/09 13:59:42;;;;;;;17.20;15.70;;;34.90;16.70;;;;;;5005357;28;20448;-69
2022/03/09 14:02:24;;;;;;;17.20;15.60;;;32.10;16.90;;;;;;5002020;28;20476;-71
2022/03/09 14:04:50;;;;;;;18.77;17.20;;;28.80;17.50;;;;;;4999572;28;21172;-69
2022/03/09 14:07:16;;;;;;;16.20;14.90;;;27.00;18.70;;;;;;5006887;28;20544;-70
2022/03/09 14:10:02;;;;;;;16.77;15.47;;;26.00;19.00;;;;;;5006755;28;20292;-69